createdAt,value
2019-02-02T00:00:29.547Z,22.53
2019-02-02T00:02:58.018Z,21.57
2019-02-02T00:05:26.434Z,22.30
2019-02-02T00:07:54.854Z,22.50
2019-02-02T00:10:23.254Z,21.87
2019-02-02T00:12:51.663Z,23.63
2019-02-02T00:15:20.072Z,23.57
2019-02-02T00:17:48.494Z,19.33
2019-02-02T00:20:16.886Z,19.23
2019-02-02T00:22:45.276Z,23.23
2019-02-02T00:25:13.966Z,22.37
2019-02-02T00:27:42.365Z,23.47
2019-02-02T00:30:13.870Z,21.90
2019-02-02T00:32:42.276Z,23.27
2019-02-02T00:35:10.839Z,26.60
2019-02-02T00:37:39.720Z,21.23
2019-02-02T00:40:23.184Z,22.00
2019-02-02T00:42:51.677Z,24.53
2019-02-02T00:45:22.291Z,20.83
2019-02-02T00:47:51.543Z,24.07
2019-02-02T00:50:20.301Z,27.13
2019-02-02T00:52:48.887Z,24.17
2019-02-02T00:55:18.634Z,21.53
2019-02-02T00:57:53.419Z,22.43
2019-02-02T01:00:19.263Z,21.00
2019-02-02T01:02:48.037Z,21.43
2019-02-02T01:05:18.850Z,22.90
2019-02-02T01:07:47.495Z,24.60
2019-02-02T01:10:37.173Z,22.43
2019-02-02T01:13:06.327Z,23.50
2019-02-02T01:15:34.873Z,24.80
2019-02-02T01:18:03.314Z,26.03
2019-02-02T01:20:31.902Z,27.47
2019-02-02T01:23:00.460Z,25.60
2019-02-02T01:25:29.022Z,28.00
2019-02-02T01:28:05.030Z,29.77
2019-02-02T01:30:27.893Z,26.00
2019-02-02T01:32:56.311Z,26.23
2019-02-02T01:35:24.715Z,29.40
2019-02-02T01:37:53.164Z,30.47
2019-02-02T01:40:24.509Z,26.77
2019-02-02T01:42:53.052Z,29.07
2019-02-02T01:45:23.826Z,28.80
2019-02-02T01:47:52.389Z,26.67
2019-02-02T01:50:22.931Z,28.50
2019-02-02T01:52:51.528Z,30.53
2019-02-02T01:55:20.068Z,31.63
2019-02-02T01:57:48.477Z,29.27
2019-02-02T02:00:25.662Z,29.33
2019-02-02T02:02:54.188Z,27.50
2019-02-02T02:05:22.832Z,25.60
2019-02-02T02:07:51.392Z,28.63
2019-02-02T02:10:20.440Z,26.60
2019-02-02T02:12:49.015Z,27.07
2019-02-02T02:15:18.761Z,26.77
2019-02-02T02:17:48.635Z,31.27
2019-02-02T02:20:19.177Z,25.87
2019-02-02T02:22:49.027Z,26.83
2019-02-02T02:25:18.874Z,27.37
2019-02-02T02:27:47.354Z,27.20
2019-02-02T02:30:17.794Z,25.57
2019-02-02T02:32:46.332Z,29.90
2019-02-02T02:35:14.873Z,27.90
2019-02-02T02:37:43.541Z,26.50
2019-02-02T02:40:14.972Z,31.43
2019-02-02T02:42:43.433Z,30.93
2019-02-02T02:45:12.787Z,31.47
2019-02-02T02:47:41.272Z,29.03
2019-02-02T02:50:12.527Z,28.27
2019-02-02T02:52:40.976Z,28.37
2019-02-02T02:55:11.224Z,30.23
2019-02-02T02:57:39.637Z,30.77
2019-02-02T03:00:11.390Z,30.67
2019-02-02T03:02:39.771Z,32.43
2019-02-02T03:05:10.809Z,26.63
2019-02-02T03:07:39.353Z,28.30
2019-02-02T03:10:11.020Z,32.80
2019-02-02T03:12:39.416Z,31.23
2019-02-02T03:15:11.025Z,35.20
2019-02-02T03:17:39.549Z,32.10
2019-02-02T03:20:10.275Z,31.67
2019-02-02T03:22:38.763Z,35.53
2019-02-02T03:25:10.402Z,35.83
2019-02-02T03:27:38.884Z,34.57
2019-02-02T03:30:13.157Z,33.53
2019-02-02T03:32:41.864Z,32.13
2019-02-02T03:35:12.524Z,37.60
2019-02-02T03:37:40.993Z,33.53
2019-02-02T03:40:12.126Z,36.00
2019-02-02T03:42:40.678Z,35.50
2019-02-02T03:45:12.567Z,38.30
2019-02-02T03:47:40.983Z,36.27
2019-02-02T03:50:11.045Z,37.33
2019-02-02T03:52:39.508Z,34.27
2019-02-02T03:55:11.352Z,34.13
2019-02-02T03:57:40.032Z,39.40
2019-02-02T04:00:11.529Z,33.57
2019-02-02T04:02:39.968Z,38.80
2019-02-02T04:05:11.790Z,38.50
2019-02-02T04:07:40.195Z,37.43
2019-02-02T04:10:11.336Z,38.97
2019-02-02T04:12:39.801Z,36.07
2019-02-02T04:15:10.245Z,40.10
2019-02-02T04:17:38.676Z,36.00
2019-02-02T04:20:19.076Z,35.53
2019-02-02T04:22:47.728Z,35.47
2019-02-02T04:25:17.499Z,34.43
2019-02-02T04:27:45.897Z,35.43
2019-02-02T04:30:25.148Z,34.90
2019-02-02T04:32:53.614Z,35.50
2019-02-02T04:35:22.254Z,36.50
2019-02-02T04:37:50.745Z,36.30
2019-02-02T04:40:19.318Z,37.97
2019-02-02T04:42:47.795Z,36.70
2019-02-02T04:45:17.443Z,34.50
2019-02-02T04:47:46.076Z,38.03
2019-02-02T04:50:16.726Z,37.40
2019-02-02T04:52:45.207Z,38.13
2019-02-02T04:55:15.357Z,39.67
2019-02-02T04:57:43.835Z,40.30
2019-02-02T05:00:18.280Z,38.83
2019-02-02T05:02:46.680Z,38.90
2019-02-02T05:05:16.916Z,44.70
2019-02-02T05:07:45.560Z,42.50
2019-02-02T05:10:17.006Z,40.83
2019-02-02T05:12:45.480Z,41.97
2019-02-02T05:15:14.037Z,41.87
2019-02-02T05:17:42.510Z,41.50
2019-02-02T05:20:13.564Z,42.03
2019-02-02T05:22:42.120Z,40.20
2019-02-02T05:25:10.972Z,42.50
2019-02-02T05:27:39.470Z,49.27
2019-02-02T05:30:10.963Z,38.23
2019-02-02T05:32:39.394Z,42.30
2019-02-02T05:35:10.147Z,47.77
2019-02-02T05:37:38.553Z,45.33
2019-02-02T05:40:13.052Z,39.10
2019-02-02T05:42:41.602Z,46.03
2019-02-02T05:45:12.953Z,45.20
2019-02-02T05:47:41.369Z,46.33
2019-02-02T05:50:12.708Z,47.73
2019-02-02T05:52:41.112Z,48.87
2019-02-02T05:55:12.271Z,48.23
2019-02-02T05:57:40.950Z,47.33
2019-02-02T06:00:14.436Z,44.10
2019-02-02T06:02:42.946Z,45.57
2019-02-02T06:05:11.415Z,41.50
2019-02-02T06:07:39.887Z,40.80
2019-02-02T06:10:11.384Z,45.20
2019-02-02T06:12:39.799Z,43.07
2019-02-02T06:15:08.633Z,43.40
2019-02-02T06:17:37.051Z,44.53
2019-02-02T06:20:08.684Z,47.23
2019-02-02T06:22:37.084Z,55.67
2019-02-02T06:25:08.269Z,49.77
2019-02-02T06:27:36.676Z,49.17
2019-02-02T06:30:08.153Z,49.13
2019-02-02T06:32:36.587Z,50.67
2019-02-02T06:35:07.541Z,45.03
2019-02-02T06:37:35.951Z,47.37
2019-02-02T06:40:07.100Z,44.70
2019-02-02T06:42:35.512Z,41.83
2019-02-02T06:45:05.818Z,42.43
2019-02-02T06:47:34.287Z,44.53
2019-02-02T06:50:02.692Z,42.10
2019-02-02T06:52:31.211Z,43.47
2019-02-02T06:55:01.230Z,48.70
2019-02-02T06:57:29.635Z,46.27
2019-02-02T06:59:58.042Z,50.77
2019-02-02T07:02:26.463Z,51.23
2019-02-02T07:04:54.859Z,53.53
2019-02-02T07:07:23.281Z,49.63
2019-02-02T07:09:51.664Z,45.47
2019-02-02T07:12:20.107Z,55.00
2019-02-02T07:14:48.500Z,50.93
2019-02-02T07:17:16.899Z,47.90
2019-02-02T07:19:45.305Z,51.83
2019-02-02T07:22:13.695Z,48.13
2019-02-02T07:24:42.099Z,45.80
2019-02-02T07:27:10.509Z,47.07
2019-02-02T07:29:38.899Z,44.57
2019-02-02T07:32:07.300Z,41.03
2019-02-02T07:34:35.720Z,47.20
2019-02-02T07:37:04.196Z,46.53
2019-02-02T07:39:32.587Z,42.83
2019-02-02T07:42:01.362Z,44.20
2019-02-02T07:44:31.299Z,36.80
2019-02-02T07:46:59.704Z,39.33
2019-02-02T07:49:28.110Z,38.30
2019-02-02T07:51:56.556Z,45.43
2019-02-02T07:54:25.523Z,46.37
2019-02-02T07:56:53.936Z,50.40
2019-02-02T07:59:23.699Z,55.13
2019-02-02T08:01:52.106Z,41.57
2019-02-02T08:04:20.570Z,44.47
2019-02-02T08:06:48.961Z,43.33
2019-02-02T08:09:18.040Z,44.27
2019-02-02T08:11:46.428Z,43.57
2019-02-02T08:14:14.816Z,44.83
2019-02-02T08:19:26.959Z,49.43
2019-02-02T08:21:55.383Z,48.73
2019-02-02T08:24:23.773Z,48.17
2019-02-02T08:26:52.196Z,48.07
2019-02-02T08:29:20.596Z,48.73
2019-02-02T08:31:49.011Z,44.13
2019-02-02T08:34:17.436Z,49.47
2019-02-02T08:36:45.860Z,51.47
2019-02-02T08:39:28.680Z,49.00
2019-02-02T08:41:47.524Z,51.90
2019-02-02T08:44:15.912Z,50.13
2019-02-02T08:46:44.324Z,50.30
2019-02-02T08:49:12.771Z,49.20
2019-02-02T08:51:41.268Z,58.50
2019-02-02T08:54:09.673Z,51.57
2019-02-02T08:56:38.113Z,48.93
2019-02-02T08:59:06.649Z,47.93
2019-02-02T09:01:35.064Z,54.70
2019-02-02T09:04:03.533Z,49.63
2019-02-02T09:06:39.049Z,53.73
2019-02-02T09:09:02.587Z,50.73
2019-02-02T09:11:31.002Z,49.73
2019-02-02T09:13:59.409Z,48.77
2019-02-02T09:16:27.859Z,50.83
2019-02-02T09:18:56.275Z,50.87
2019-02-02T09:21:24.709Z,51.20
2019-02-02T09:23:53.128Z,49.70
2019-02-02T09:26:21.524Z,54.40
2019-02-02T09:28:49.960Z,53.30
2019-02-02T09:31:18.381Z,51.73
2019-02-02T09:33:46.804Z,49.13
2019-02-02T09:36:16.958Z,51.23
2019-02-02T09:38:45.520Z,54.90
2019-02-02T09:41:13.931Z,51.70
2019-02-02T09:43:42.366Z,53.80
2019-02-02T09:46:10.771Z,52.77
2019-02-02T09:48:39.176Z,48.23
2019-02-02T09:51:07.656Z,56.50
2019-02-02T09:53:36.056Z,51.90
2019-02-02T09:56:06.004Z,46.97
2019-02-02T09:58:34.462Z,51.83
2019-02-02T10:01:02.868Z,50.77
2019-02-02T10:03:31.272Z,55.00
2019-02-02T10:05:59.712Z,52.47
2019-02-02T10:08:28.356Z,54.33
2019-02-02T10:10:56.808Z,52.73
2019-02-02T10:13:25.217Z,53.87
2019-02-02T10:15:53.639Z,50.97
2019-02-02T10:18:22.186Z,54.03
2019-02-02T10:20:50.606Z,58.57
2019-02-02T10:23:19.101Z,50.73
2019-02-02T10:25:47.500Z,51.03
2019-02-02T10:28:15.907Z,59.83
2019-02-02T10:30:44.465Z,55.70
2019-02-02T10:33:13.013Z,52.40
2019-02-02T10:35:41.412Z,59.77
2019-02-02T10:38:09.882Z,50.00
2019-02-02T10:40:38.382Z,55.03
2019-02-02T10:43:06.882Z,57.23
2019-02-02T10:45:35.435Z,54.30
2019-02-02T10:48:04.228Z,55.07
2019-02-02T10:50:32.658Z,56.87
2019-02-02T10:53:01.128Z,56.43
2019-02-02T10:55:29.574Z,56.10
2019-02-02T10:57:58.437Z,53.03
2019-02-02T11:00:29.172Z,57.33
2019-02-02T11:02:57.863Z,56.67
2019-02-02T11:05:26.815Z,52.63
2019-02-02T11:07:55.366Z,56.13
2019-02-02T11:10:31.655Z,55.00
2019-02-02T11:13:00.131Z,62.23
2019-02-02T11:15:28.774Z,59.07
2019-02-02T11:17:57.319Z,60.57
2019-02-02T11:20:33.861Z,59.40
2019-02-02T11:23:02.631Z,58.67
2019-02-02T11:25:31.238Z,57.97
2019-02-02T11:27:59.774Z,60.73
2019-02-02T11:30:29.081Z,64.97
2019-02-02T11:32:57.827Z,63.00
2019-02-02T11:35:26.333Z,62.80
2019-02-02T11:37:54.964Z,58.70
2019-02-02T11:40:31.780Z,64.20
2019-02-02T11:43:00.362Z,65.97
2019-02-02T11:45:28.988Z,64.70
2019-02-02T11:47:57.557Z,65.03
2019-02-02T11:50:26.141Z,66.37
2019-02-02T11:52:54.689Z,68.53
2019-02-02T11:55:27.065Z,67.10
2019-02-02T11:57:55.722Z,68.13
2019-02-02T12:00:38.676Z,71.57
2019-02-02T12:03:07.261Z,69.83
2019-02-02T12:05:35.670Z,71.37
2019-02-02T12:08:04.416Z,75.87
2019-02-02T12:10:34.254Z,62.97
2019-02-02T12:13:02.858Z,69.67
2019-02-02T12:15:31.355Z,71.73
2019-02-02T12:17:59.841Z,72.63
2019-02-02T12:20:28.341Z,66.00
2019-02-02T12:22:56.892Z,75.23
2019-02-02T12:25:25.440Z,70.27
2019-02-02T12:27:53.902Z,73.23
2019-02-02T12:30:27.852Z,80.17
2019-02-02T12:32:56.259Z,80.90
2019-02-02T12:35:26.492Z,70.00
2019-02-02T12:37:55.287Z,77.87
2019-02-02T12:40:25.244Z,79.30
2019-02-02T12:42:53.650Z,77.67
2019-02-02T12:45:30.765Z,77.90
2019-02-02T12:47:59.559Z,72.83
2019-02-02T12:50:27.988Z,76.40
2019-02-02T12:52:56.520Z,79.30
2019-02-02T12:55:26.033Z,76.13
2019-02-02T12:57:54.597Z,73.90
2019-02-02T13:00:23.089Z,78.73
2019-02-02T13:02:51.558Z,79.30
2019-02-02T13:05:22.492Z,80.87
2019-02-02T13:07:50.984Z,82.50
2019-02-02T13:10:24.404Z,80.77
2019-02-02T13:12:52.007Z,80.23
2019-02-02T13:15:20.391Z,81.83
2019-02-02T13:17:48.853Z,74.10
2019-02-02T13:20:17.994Z,82.80
2019-02-02T13:22:46.567Z,77.67
2019-02-02T13:25:17.129Z,79.00
2019-02-02T13:27:45.520Z,78.97
2019-02-02T13:30:19.732Z,80.03
2019-02-02T13:32:50.018Z,79.50
2019-02-02T13:35:19.394Z,85.23
2019-02-02T13:37:47.788Z,82.80
2019-02-02T13:40:18.948Z,80.70
2019-02-02T13:42:47.423Z,79.17
2019-02-02T13:45:18.076Z,84.30
2019-02-02T13:47:46.492Z,81.13
2019-02-02T13:50:16.644Z,84.57
2019-02-02T13:52:45.887Z,86.80
2019-02-02T13:55:14.435Z,81.63
2019-02-02T13:57:44.493Z,79.73
2019-02-02T14:00:21.843Z,87.17
2019-02-02T14:03:01.428Z,89.33
2019-02-02T14:05:20.517Z,83.13
2019-02-02T14:07:48.912Z,85.73
2019-02-02T14:10:25.409Z,85.77
2019-02-02T14:12:53.877Z,82.60
2019-02-02T14:15:22.343Z,91.47
2019-02-02T14:17:50.751Z,88.50
2019-02-02T14:20:19.221Z,90.17
2019-02-02T14:22:47.766Z,87.80
2019-02-02T14:25:17.309Z,92.63
2019-02-02T14:27:45.945Z,89.47
2019-02-02T14:30:16.704Z,96.53
2019-02-02T14:32:45.111Z,93.13
2019-02-02T14:35:18.900Z,92.43
2019-02-02T14:37:47.397Z,95.87
2019-02-02T14:40:18.050Z,94.00
2019-02-02T14:42:46.748Z,94.50
2019-02-02T14:45:21.640Z,96.17
2019-02-02T14:47:50.331Z,102.97
2019-02-02T14:50:22.136Z,104.60
2019-02-02T14:52:51.977Z,93.40
2019-02-02T14:55:22.928Z,100.30
2019-02-02T14:57:51.414Z,96.97
2019-02-02T15:00:22.532Z,98.47
2019-02-02T15:02:50.950Z,101.27
2019-02-02T15:05:21.162Z,111.93
2019-02-02T15:07:50.057Z,97.67
2019-02-02T15:10:18.800Z,100.23
2019-02-02T15:12:47.267Z,105.43
2019-02-02T15:15:17.918Z,101.30
2019-02-02T15:17:46.379Z,109.23
2019-02-02T15:20:26.461Z,104.83
2019-02-02T15:22:54.893Z,106.70
2019-02-02T15:25:23.287Z,107.03
2019-02-02T15:27:52.535Z,109.20
2019-02-02T15:30:26.108Z,91.00
2019-02-02T15:32:54.683Z,93.60
2019-02-02T15:35:23.307Z,108.60
2019-02-02T15:37:53.048Z,110.53
2019-02-02T15:40:21.994Z,114.13
2019-02-02T15:42:50.455Z,109.27
2019-02-02T15:45:24.107Z,104.00
2019-02-02T15:47:52.496Z,104.47
2019-02-02T15:50:20.989Z,107.20
2019-02-02T15:52:49.615Z,99.27
2019-02-02T15:55:19.952Z,99.73
2019-02-02T15:57:48.519Z,97.63
2019-02-02T16:00:22.502Z,111.07
2019-02-02T16:02:50.916Z,112.23
2019-02-02T16:05:20.581Z,107.70
2019-02-02T16:07:49.447Z,109.97
2019-02-02T16:10:22.712Z,104.37
2019-02-02T16:12:51.368Z,108.00
2019-02-02T16:15:19.776Z,96.13
2019-02-02T16:17:48.244Z,104.90
2019-02-02T16:20:22.574Z,103.00
2019-02-02T16:22:50.984Z,94.43
2019-02-02T16:25:19.422Z,108.63
2019-02-02T16:27:47.824Z,102.43
2019-02-02T16:30:24.996Z,105.83
2019-02-02T16:32:53.417Z,112.93
2019-02-02T16:35:22.094Z,105.43
2019-02-02T16:37:50.492Z,97.93
2019-02-02T16:40:21.657Z,111.53
2019-02-02T16:42:53.343Z,108.80
2019-02-02T16:45:22.722Z,104.13
2019-02-02T16:47:51.394Z,109.00
2019-02-02T16:50:20.054Z,115.30
2019-02-02T16:52:48.445Z,114.23
2019-02-02T16:55:18.184Z,111.93
2019-02-02T16:57:46.622Z,117.73
2019-02-02T17:00:21.138Z,116.50
2019-02-02T17:02:49.864Z,111.20
2019-02-02T17:05:18.422Z,108.80
2019-02-02T17:07:46.912Z,116.30
2019-02-02T17:10:20.690Z,107.33
2019-02-02T17:12:49.257Z,108.13
2019-02-02T17:15:18.063Z,107.37
2019-02-02T17:17:46.527Z,118.33
2019-02-02T17:20:26.825Z,116.87
2019-02-02T17:22:55.294Z,106.83
2019-02-02T17:25:23.860Z,122.00
2019-02-02T17:27:52.326Z,117.47
2019-02-02T17:30:23.267Z,117.07
2019-02-02T17:32:52.520Z,111.10
2019-02-02T17:35:21.011Z,112.70
2019-02-02T17:37:49.403Z,120.70
2019-02-02T17:40:20.068Z,102.87
2019-02-02T17:42:48.476Z,126.67
2019-02-02T17:45:19.111Z,123.70
2019-02-02T17:47:47.612Z,115.43
2019-02-02T17:50:18.432Z,114.57
2019-02-02T17:52:46.904Z,111.77
2019-02-02T17:55:15.561Z,111.87
2019-02-02T17:57:44.045Z,117.33
2019-02-02T18:00:22.986Z,116.20
2019-02-02T18:02:51.384Z,114.90
2019-02-02T18:05:19.798Z,113.97
2019-02-02T18:07:48.219Z,117.63
2019-02-02T18:10:17.371Z,109.20
2019-02-02T18:12:45.838Z,109.40
2019-02-02T18:15:15.701Z,118.40
2019-02-02T18:17:44.116Z,119.27
2019-02-02T18:20:14.768Z,115.40
2019-02-02T18:22:43.520Z,111.63
2019-02-02T18:25:16.232Z,128.00
2019-02-02T18:27:44.692Z,123.93
2019-02-02T18:30:21.779Z,118.07
2019-02-02T18:32:50.787Z,117.10
2019-02-02T18:35:19.255Z,122.47
2019-02-02T18:37:47.803Z,113.67
2019-02-02T18:40:19.262Z,113.90
2019-02-02T18:42:47.803Z,123.73
2019-02-02T18:45:21.936Z,115.30
2019-02-02T18:47:50.536Z,121.87
2019-02-02T18:50:18.935Z,117.80
2019-02-02T18:52:49.007Z,120.13
2019-02-02T18:55:20.499Z,119.53
2019-02-02T18:57:48.907Z,118.27
2019-02-02T19:00:19.524Z,114.90
2019-02-02T19:02:48.357Z,119.83
2019-02-02T19:05:16.933Z,116.33
2019-02-02T19:07:45.356Z,120.40
2019-02-02T19:10:18.591Z,122.13
2019-02-02T19:12:47.066Z,118.23
2019-02-02T19:15:15.640Z,123.67
2019-02-02T19:17:44.046Z,117.27
2019-02-02T19:20:15.171Z,143.43
2019-02-02T19:22:43.693Z,130.40
2019-02-02T19:25:12.553Z,140.90
2019-02-02T19:27:40.959Z,111.47
2019-02-02T19:30:27.196Z,134.40
2019-02-02T19:32:55.617Z,127.40
2019-02-02T19:35:24.103Z,125.13
2019-02-02T19:37:52.815Z,128.57
2019-02-02T19:40:21.304Z,117.73
2019-02-02T19:42:49.698Z,128.23
2019-02-02T19:45:24.096Z,131.90
2019-02-02T19:47:52.517Z,122.37
2019-02-02T19:50:23.738Z,131.50
2019-02-02T19:52:52.441Z,138.17
2019-02-02T19:55:20.928Z,139.83
2019-02-02T19:57:49.487Z,137.33
2019-02-02T20:00:22.972Z,138.87
2019-02-02T20:02:51.410Z,149.03
2019-02-02T20:05:27.978Z,138.27
2019-02-02T20:07:50.176Z,148.23
2019-02-02T20:10:19.259Z,137.13
2019-02-02T20:12:47.749Z,142.73
2019-02-02T20:15:21.180Z,144.60
2019-02-02T20:17:49.732Z,143.77
2019-02-02T20:20:19.920Z,145.67
2019-02-02T20:22:48.495Z,148.50
2019-02-02T20:25:16.925Z,153.73
2019-02-02T20:27:45.468Z,148.07
2019-02-02T20:30:21.612Z,136.50
2019-02-02T20:32:50.100Z,146.60
2019-02-02T20:35:18.505Z,146.50
2019-02-02T20:37:46.990Z,153.43
2019-02-02T20:40:17.900Z,152.27
2019-02-02T20:42:46.396Z,150.70
2019-02-02T20:45:17.432Z,149.50
2019-02-02T20:47:45.846Z,141.70
2019-02-02T20:50:16.383Z,144.57
2019-02-02T20:52:47.383Z,136.27
2019-02-02T20:55:23.308Z,143.00
2019-02-02T20:57:52.001Z,127.63
2019-02-02T21:00:22.524Z,141.20
2019-02-02T21:02:51.077Z,143.33
2019-02-02T21:05:19.528Z,145.70
2019-02-02T21:07:47.943Z,141.37
2019-02-02T21:10:24.175Z,135.67
2019-02-02T21:12:52.669Z,140.77
2019-02-02T21:15:21.132Z,139.20
2019-02-02T21:17:49.562Z,150.63
2019-02-02T21:20:30.746Z,153.80
2019-02-02T21:22:59.310Z,157.30
2019-02-02T21:25:27.723Z,141.47
2019-02-02T21:27:56.218Z,139.90
2019-02-02T21:30:32.750Z,145.77
2019-02-02T21:33:01.250Z,135.50
2019-02-02T21:35:29.703Z,134.47
2019-02-02T21:37:58.245Z,136.33
2019-02-02T21:40:29.179Z,139.07
2019-02-02T21:42:57.691Z,134.57
2019-02-02T21:45:26.202Z,136.57
2019-02-02T21:47:55.273Z,134.23
2019-02-02T21:50:25.351Z,136.60
2019-02-02T21:52:54.522Z,123.50
2019-02-02T21:55:28.376Z,136.73
2019-02-02T21:57:56.818Z,132.97
2019-02-02T22:00:28.705Z,145.00
2019-02-02T22:02:57.272Z,130.60
2019-02-02T22:05:25.706Z,129.63
2019-02-02T22:07:54.123Z,138.57
2019-02-02T22:10:22.607Z,130.97
2019-02-02T22:12:52.935Z,129.40
2019-02-02T22:15:26.350Z,130.40
2019-02-02T22:17:54.850Z,129.97
2019-02-02T22:20:23.321Z,126.60
2019-02-02T22:22:51.717Z,131.53
2019-02-02T22:25:22.716Z,137.43
2019-02-02T22:27:51.197Z,134.77
2019-02-02T22:30:25.491Z,124.37
2019-02-02T22:32:53.980Z,139.23
2019-02-02T22:35:22.706Z,138.40
2019-02-02T22:37:51.115Z,133.10
2019-02-02T22:40:22.319Z,130.53
2019-02-02T22:42:50.952Z,130.90
2019-02-02T22:45:20.304Z,131.77
2019-02-02T22:47:48.956Z,127.80
2019-02-02T22:50:19.906Z,127.10
2019-02-02T22:52:48.641Z,133.13
2019-02-02T22:55:18.628Z,137.33
2019-02-02T22:57:47.355Z,134.20
2019-02-02T23:00:34.921Z,137.80
2019-02-02T23:03:03.454Z,125.83
2019-02-02T23:05:37.847Z,132.30
2019-02-02T23:08:09.335Z,142.40
2019-02-02T23:10:43.640Z,138.73
2019-02-02T23:13:24.582Z,134.87
2019-02-02T23:16:07.818Z,130.03
2019-02-02T23:18:36.243Z,153.53
2019-02-02T23:21:06.192Z,144.03
2019-02-02T23:23:34.620Z,157.43
2019-02-02T23:26:03.379Z,153.53
2019-02-02T23:28:32.675Z,155.73
2019-02-02T23:31:01.072Z,173.10
2019-02-02T23:33:29.725Z,155.43
2019-02-02T23:35:58.291Z,165.03
2019-02-02T23:38:26.722Z,166.63
2019-02-02T23:40:55.131Z,160.83
2019-02-02T23:43:23.605Z,150.70
2019-02-02T23:45:52.005Z,155.67
2019-02-02T23:48:20.433Z,150.03
2019-02-02T23:50:48.927Z,153.23
2019-02-02T23:53:17.336Z,154.27
2019-02-02T23:55:45.756Z,164.90
2019-02-02T23:58:14.160Z,152.70
